This is the latest recevied weather packets stored in our database for station/object KB3YCK-2. If no packets are shown the sender has not sent any weather packets the latest 10 day(s).
| Time | Temp. | Humidity | Pressure | Rain* | Wind** | Luminosity | Snow |
|---|---|---|---|---|---|---|---|
| 1777707903 | 8.89° C | 87% | 1012.1 hPa | 0 mm | - | 0 W/m² | - |
| 1777703406 | 10° C | 85% | 1012.5 hPa | 0 mm | - | 0 W/m² | - |
| 1777701614 | 9.44° C | 87% | 1012.7 hPa | 0 mm | - | 0 W/m² | - |
| 1777700102 | 10° C | 87% | 1012.6 hPa | 0 mm | - | 0 W/m² | - |
| 1777698304 | 10° C | 87% | 1012.9 hPa | 0 mm | - | 0 W/m² | - |
| 1777695906 | 10.56° C | 87% | 1012.7 hPa | 0 mm | - | 0 W/m² | - |
| 1777694411 | 10.56° C | 87% | 1012.6 hPa | 0 mm | - | 0 W/m² | - |
| 1777693204 | 10.56° C | 87% | 1012.5 hPa | 0 mm | - | 0 W/m² | - |
| 1777692907 | 10.56° C | 87% | 1012.4 hPa | 0 mm | - | 0 W/m² | - |
| 1777690503 | 10.56° C | 87% | 1012.3 hPa | 0 mm | - | 0 W/m² | - |
| 1777689008 | 10.56° C | 86% | 1012.1 hPa | 0 mm | - | 0 W/m² | - |
| 1777687502 | 11.11° C | 85% | 1012.6 hPa | 0 mm | - | 0 W/m² | - |
| 1777687202 | 11.11° C | 85% | 1012.5 hPa | 0 mm | - | 0 W/m² | - |
| 1777686303 | 11.11° C | 83% | 1012.4 hPa | 0 mm | - | 0 W/m² | - |
| 1777685706 | 11.11° C | 82% | 1012.4 hPa | 0 mm | - | 0 W/m² | - |
| 1777682103 | 12.22° C | 73% | 1011.9 hPa | 0 mm | - | 0 W/m² | - |
| 1777680001 | 13.89° C | 69% | 1011.4 hPa | 0 mm | - | 0 W/m² | - |
| 1777679704 | 13.89° C | 68% | 1011.5 hPa | 0 mm | - | 0 W/m² | - |
| 1777677908 | 15° C | 65% | 1011.3 hPa | 0 mm | - | 12 W/m² | - |
| 1777677306 | 15° C | 65% | 1011.4 hPa | 0 mm | - | 18 W/m² | - |
| 1777675805 | 16.11° C | 63% | 1011.1 hPa | 0 mm | - | 125 W/m² | - |
| 1777672811 | 17.22° C | 62% | 1011.5 hPa | 0 mm | - | 302 W/m² | - |
| 1777672505 | 17.22° C | 62% | 1011.5 hPa | 0 mm | - | 315 W/m² | - |
| 1777669802 | 17.78° C | 62% | 1011.5 hPa | 0 mm | - | 462 W/m² | - |
| 1777669222 | 17.78° C | 62% | 1011.5 hPa | 0 mm | - | 494 W/m² | - |
* Rain latest hour (hover to see other rain measurements)
** Current wind speed in m/s (hover to see current wind gust speed)